Flight Track Log - Related Links

Times and Time Zones

All times are in EDT time to prevent confusion due to time zone crossing. See the KAP927 flight status page for this flight to view local times or setup timezone preferences in your user account.

Time Position Orientation Groundspeed Altitude Reporting Facility
EDT Latitude Longitude Course Direction KTS MPH feet Rate Location/Type
Fri 07:37:11 PM 43.8117 -74.7158 329° Northwest 166 191 7,900  Level Boston Center
Fri 07:38:11 PM 43.8439 -74.7633 313° West 166 191 7,900  Level Boston Center
Fri 07:39:11 PM 43.8786 -74.8078 317° Northwest 166 191 7,900  Level Boston Center
Fri 07:40:11 PM 43.9089 -74.8550 312° West 166 191 7,900 50 Level Boston Center
Fri 07:41:11 PM 43.9433 -74.8997 317° Northwest 171 197 8,000  Climbing Boston Center
Fri 07:42:00 PM 43.9564 -74.8260 329° Northwest  Level Estimated
Fri 07:42:11 PM 43.9736 -74.9442 313° West 171 197 7,900  Level Boston Center
Fri 07:43:11 PM 44.0058 -74.9889 315° West 171 197 7,900  Level Boston Center
Fri 07:44:11 PM 44.0383 -75.0308 317° Northwest 171 197 7,900  Level Boston Center
Fri 07:45:11 PM 44.0664 -75.0753 311° West 166 191 7,900 -100 Level Boston Center
Fri 07:46:11 PM 44.1008 -75.1172 319° Northwest 166 191 7,700 -300 Descending Boston Center
Fri 07:47:11 PM 44.1331 -75.1681 311° West 172 198 7,300 -450 Descending Boston Center
Fri 07:48:11 PM 44.1675 -75.2158 315° West 172 198 6,800 -450 Descending Boston Center
Fri 07:49:11 PM 44.2056 -75.2697 315° West 172 198 6,400 -450 Descending Boston Center
Fri 07:50:11 PM 44.2419 -75.3236 313° West 177 204 5,900 -450 Descending Boston Center
Fri 07:51:11 PM 44.2803 -75.3747 316° Northwest 177 204 5,500 -400 Descending Boston Center
Fri 07:52:11 PM 44.3144 -75.4231 315° West 177 204 5,100 -300 Descending Boston Center
Fri 07:53:11 PM 44.3506 -75.4742 315° West 177 204 4,900 -100 Descending Boston Center
Fri 07:54:11 PM 44.3828 -75.5194 315° West 172 198 4,900  Level Boston Center
Fri 07:55:11 PM 44.4150 -75.5617 317° Northwest 166 191 4,900  Level Boston Center
Fri 07:56:11 PM 44.4428 -75.6097 309° West 166 191 4,900 -250 Level Boston Center
Fri 07:57:11 PM 44.4769 -75.6581 315° West 166 191 4,400 -500 Descending Boston Center
Fri 07:58:11 PM 44.5172 -75.7011 323° Northwest 171 197 3,900 -500 Descending Boston Center
Fri 07:59:11 PM 44.5667 -75.7214 344° North 171 197 3,400 -450 Descending Boston Center
Fri 08:00:11 PM 44.6181 -75.7447 342° North 176 203 3,000 -488 Descending Boston Center
Fri 08:01:14 PM 44.6333 -75.6667 75° East 170 196 2,400 -390 Descending Montreal Center
Fri 08:02:14 PM 44.6333 -75.6167 90° East 170 196 2,200 -350 Descending Montreal Center
Fri 08:03:14 PM 44.6500 -75.5500 71° East 150 173 1,700 -550 Descending Montreal Center
Fri 08:04:14 PM 44.6667 -75.5000 65° Northeast 130 150 1,100 2,136 Descending Montreal Center
Fri 08:06:11 PM 44.7947 -75.8394 298° West 176 203 8,000 1,747 Climbing Boston Center
Fri 08:08:11 PM 44.7947 -75.8394 305° West 176 203 8,000  Level Boston Center
Fri 08:10:11 PM 44.6842 -75.4650 112° Southeast 176 203 8,000  Level Boston Center
Fri 08:12:23 PM 44.6842 -75.4650 180° South 176 203 8,000  Level Boston Center
Fri 08:14:23 PM 44.6842 -75.4650 180° South 176 203 8,000  Level Boston Center

Login

Don't have an account? Register now (free) for customized features, flight alerts, and more!